sensor_id;sensor_type;location;lat;lon;timestamp;P1;durP1;ratioP1;P2;durP2;ratioP2
1591;SDS011;789;51.612;7.510;2022-10-26T00:01:48;14.70;;;7.23;;
1591;SDS011;789;51.612;7.510;2022-10-26T00:04:15;9.80;;;7.77;;
1591;SDS011;789;51.612;7.510;2022-10-26T00:06:42;11.90;;;7.43;;
1591;SDS011;789;51.612;7.510;2022-10-26T00:09:08;8.27;;;7.47;;
1591;SDS011;789;51.612;7.510;2022-10-26T00:11:35;8.70;;;7.17;;
1591;SDS011;789;51.612;7.510;2022-10-26T00:14:03;11.17;;;7.70;;
1591;SDS011;789;51.612;7.510;2022-10-26T00:16:30;10.40;;;7.40;;
1591;SDS011;789;51.612;7.510;2022-10-26T00:18:56;12.03;;;6.93;;
1591;SDS011;789;51.612;7.510;2022-10-26T00:21:23;12.00;;;7.50;;
1591;SDS011;789;51.612;7.510;2022-10-26T00:23:50;9.40;;;7.30;;
1591;SDS011;789;51.612;7.510;2022-10-26T00:26:16;22.37;;;8.50;;
1591;SDS011;789;51.612;7.510;2022-10-26T00:28:43;12.27;;;8.30;;
1591;SDS011;789;51.612;7.510;2022-10-26T00:31:12;12.13;;;8.67;;
1591;SDS011;789;51.612;7.510;2022-10-26T00:33:40;17.13;;;8.53;;
1591;SDS011;789;51.612;7.510;2022-10-26T00:36:07;8.50;;;6.83;;
1591;SDS011;789;51.612;7.510;2022-10-26T00:38:34;10.37;;;7.63;;
1591;SDS011;789;51.612;7.510;2022-10-26T00:41:01;10.97;;;7.03;;
1591;SDS011;789;51.612;7.510;2022-10-26T00:43:34;11.50;;;6.87;;
1591;SDS011;789;51.612;7.510;2022-10-26T00:46:03;15.83;;;7.10;;
1591;SDS011;789;51.612;7.510;2022-10-26T00:48:39;9.17;;;7.30;;
1591;SDS011;789;51.612;7.510;2022-10-26T00:51:09;13.90;;;7.60;;
1591;SDS011;789;51.612;7.510;2022-10-26T00:53:40;12.33;;;6.90;;
1591;SDS011;789;51.612;7.510;2022-10-26T00:56:07;13.63;;;7.50;;
1591;SDS011;789;51.612;7.510;2022-10-26T00:58:34;12.57;;;6.70;;
1591;SDS011;789;51.612;7.510;2022-10-26T01:01:02;9.73;;;6.83;;
1591;SDS011;789;51.612;7.510;2022-10-26T01:03:29;8.50;;;6.53;;
1591;SDS011;789;51.612;7.510;2022-10-26T01:05:58;6.67;;;6.00;;
1591;SDS011;789;51.612;7.510;2022-10-26T01:08:25;10.20;;;6.80;;
1591;SDS011;789;51.612;7.510;2022-10-26T01:10:52;10.33;;;6.40;;
1591;SDS011;789;51.612;7.510;2022-10-26T01:13:21;8.40;;;6.77;;
1591;SDS011;789;51.612;7.510;2022-10-26T01:15:50;13.10;;;6.60;;
1591;SDS011;789;51.612;7.510;2022-10-26T01:18:26;8.07;;;6.40;;
1591;SDS011;789;51.612;7.510;2022-10-26T01:21:11;11.00;;;7.17;;
1591;SDS011;789;51.612;7.510;2022-10-26T01:24:06;8.20;;;6.00;;
1591;SDS011;789;51.612;7.510;2022-10-26T01:26:57;10.50;;;6.77;;
1591;SDS011;789;51.612;7.510;2022-10-26T01:32:46;7.23;;;6.00;;
1591;SDS011;789;51.612;7.510;2022-10-26T01:35:27;6.33;;;5.73;;
1591;SDS011;789;51.612;7.510;2022-10-26T01:37:57;10.40;;;6.27;;
1591;SDS011;789;51.612;7.510;2022-10-26T01:40:30;8.53;;;5.73;;
1591;SDS011;789;51.612;7.510;2022-10-26T01:43:01;11.40;;;5.43;;
1591;SDS011;789;51.612;7.510;2022-10-26T01:45:32;12.30;;;6.03;;
1591;SDS011;789;51.612;7.510;2022-10-26T01:48:04;10.40;;;5.37;;
1591;SDS011;789;51.612;7.510;2022-10-26T01:50:33;7.70;;;4.90;;
1591;SDS011;789;51.612;7.510;2022-10-26T01:53:00;7.50;;;5.70;;
1591;SDS011;789;51.612;7.510;2022-10-26T01:55:43;7.27;;;5.63;;
1591;SDS011;789;51.612;7.510;2022-10-26T01:58:15;6.60;;;5.23;;
1591;SDS011;789;51.612;7.510;2022-10-26T02:01:07;9.43;;;5.40;;
1591;SDS011;789;51.612;7.510;2022-10-26T02:03:48;9.43;;;5.50;;
1591;SDS011;789;51.612;7.510;2022-10-26T02:06:21;12.23;;;5.90;;
1591;SDS011;789;51.612;7.510;2022-10-26T02:08:57;10.37;;;5.00;;
1591;SDS011;789;51.612;7.510;2022-10-26T02:11:35;6.67;;;4.60;;
1591;SDS011;789;51.612;7.510;2022-10-26T02:14:10;7.33;;;5.17;;
1591;SDS011;789;51.612;7.510;2022-10-26T02:16:44;10.27;;;4.83;;
1591;SDS011;789;51.612;7.510;2022-10-26T02:19:24;8.47;;;4.83;;
1591;SDS011;789;51.612;7.510;2022-10-26T02:21:58;8.20;;;5.53;;
1591;SDS011;789;51.612;7.510;2022-10-26T02:24:29;10.70;;;4.60;;
1591;SDS011;789;51.612;7.510;2022-10-26T02:26:59;11.97;;;4.40;;
1591;SDS011;789;51.612;7.510;2022-10-26T02:29:29;6.00;;;4.80;;
1591;SDS011;789;51.612;7.510;2022-10-26T02:31:58;6.40;;;4.50;;
1591;SDS011;789;51.612;7.510;2022-10-26T02:34:28;6.33;;;5.73;;
1591;SDS011;789;51.612;7.510;2022-10-26T02:36:58;7.03;;;4.80;;
1591;SDS011;789;51.612;7.510;2022-10-26T02:39:27;8.63;;;5.40;;
1591;SDS011;789;51.612;7.510;2022-10-26T02:41:58;7.83;;;5.47;;
1591;SDS011;789;51.612;7.510;2022-10-26T02:44:28;10.50;;;5.10;;
1591;SDS011;789;51.612;7.510;2022-10-26T02:46:57;6.87;;;4.87;;
1591;SDS011;789;51.612;7.510;2022-10-26T02:49:24;6.13;;;5.20;;
1591;SDS011;789;51.612;7.510;2022-10-26T02:51:53;9.93;;;5.27;;
1591;SDS011;789;51.612;7.510;2022-10-26T02:54:28;6.07;;;4.87;;
1591;SDS011;789;51.612;7.510;2022-10-26T02:57:00;6.50;;;5.20;;
1591;SDS011;789;51.612;7.510;2022-10-26T02:59:33;9.10;;;5.57;;
1591;SDS011;789;51.612;7.510;2022-10-26T03:02:03;13.40;;;7.50;;
1591;SDS011;789;51.612;7.510;2022-10-26T03:04:31;15.17;;;5.63;;
1591;SDS011;789;51.612;7.510;2022-10-26T03:07:00;10.43;;;5.40;;
1591;SDS011;789;51.612;7.510;2022-10-26T03:09:27;10.80;;;5.53;;
1591;SDS011;789;51.612;7.510;2022-10-26T03:11:54;13.57;;;5.57;;
1591;SDS011;789;51.612;7.510;2022-10-26T03:14:21;9.13;;;5.70;;
1591;SDS011;789;51.612;7.510;2022-10-26T03:16:47;18.83;;;5.53;;
1591;SDS011;789;51.612;7.510;2022-10-26T03:19:14;9.90;;;6.10;;
1591;SDS011;789;51.612;7.510;2022-10-26T03:21:41;14.73;;;5.80;;
1591;SDS011;789;51.612;7.510;2022-10-26T03:24:09;7.10;;;5.23;;
1591;SDS011;789;51.612;7.510;2022-10-26T03:26:35;12.27;;;5.10;;
1591;SDS011;789;51.612;7.510;2022-10-26T03:29:02;9.53;;;5.33;;
1591;SDS011;789;51.612;7.510;2022-10-26T03:31:29;11.30;;;6.20;;
1591;SDS011;789;51.612;7.510;2022-10-26T03:33:56;6.57;;;4.60;;
1591;SDS011;789;51.612;7.510;2022-10-26T03:36:23;5.93;;;5.37;;
1591;SDS011;789;51.612;7.510;2022-10-26T03:38:49;9.03;;;4.93;;
1591;SDS011;789;51.612;7.510;2022-10-26T03:41:17;15.80;;;5.90;;
1591;SDS011;789;51.612;7.510;2022-10-26T03:43:44;7.30;;;4.80;;
1591;SDS011;789;51.612;7.510;2022-10-26T03:46:12;8.93;;;4.87;;
1591;SDS011;789;51.612;7.510;2022-10-26T03:48:39;12.50;;;4.60;;
1591;SDS011;789;51.612;7.510;2022-10-26T03:51:05;6.33;;;4.63;;
1591;SDS011;789;51.612;7.510;2022-10-26T03:53:32;10.10;;;5.80;;
1591;SDS011;789;51.612;7.510;2022-10-26T03:55:59;10.67;;;5.13;;
1591;SDS011;789;51.612;7.510;2022-10-26T03:58:27;7.50;;;5.90;;
1591;SDS011;789;51.612;7.510;2022-10-26T04:00:53;8.03;;;5.23;;
1591;SDS011;789;51.612;7.510;2022-10-26T04:03:20;9.83;;;5.00;;
1591;SDS011;789;51.612;7.510;2022-10-26T04:05:47;6.73;;;5.37;;
1591;SDS011;789;51.612;7.510;2022-10-26T04:08:14;9.23;;;5.73;;
1591;SDS011;789;51.612;7.510;2022-10-26T04:10:40;9.70;;;5.30;;
1591;SDS011;789;51.612;7.510;2022-10-26T04:13:07;15.80;;;5.40;;
1591;SDS011;789;51.612;7.510;2022-10-26T04:15:36;7.10;;;5.87;;
1591;SDS011;789;51.612;7.510;2022-10-26T04:18:03;6.77;;;5.50;;
1591;SDS011;789;51.612;7.510;2022-10-26T04:20:31;8.30;;;5.00;;
1591;SDS011;789;51.612;7.510;2022-10-26T04:22:58;9.30;;;4.97;;
1591;SDS011;789;51.612;7.510;2022-10-26T04:25:26;8.47;;;5.10;;
1591;SDS011;789;51.612;7.510;2022-10-26T04:27:53;9.37;;;5.80;;
1591;SDS011;789;51.612;7.510;2022-10-26T04:30:20;9.83;;;5.80;;
1591;SDS011;789;51.612;7.510;2022-10-26T04:32:49;9.30;;;5.73;;
1591;SDS011;789;51.612;7.510;2022-10-26T04:35:15;10.60;;;5.27;;
1591;SDS011;789;51.612;7.510;2022-10-26T04:37:42;9.70;;;5.53;;
1591;SDS011;789;51.612;7.510;2022-10-26T04:40:09;10.47;;;5.50;;
1591;SDS011;789;51.612;7.510;2022-10-26T04:42:40;9.13;;;4.77;;
1591;SDS011;789;51.612;7.510;2022-10-26T04:45:07;6.67;;;5.17;;
1591;SDS011;789;51.612;7.510;2022-10-26T04:47:35;8.57;;;5.87;;
1591;SDS011;789;51.612;7.510;2022-10-26T04:50:03;14.83;;;5.40;;
1591;SDS011;789;51.612;7.510;2022-10-26T04:52:31;11.03;;;5.57;;
1591;SDS011;789;51.612;7.510;2022-10-26T04:54:58;8.33;;;5.20;;
1591;SDS011;789;51.612;7.510;2022-10-26T04:57:25;12.30;;;5.50;;
1591;SDS011;789;51.612;7.510;2022-10-26T04:59:52;8.20;;;4.67;;
1591;SDS011;789;51.612;7.510;2022-10-26T05:02:18;14.67;;;6.07;;
1591;SDS011;789;51.612;7.510;2022-10-26T05:04:46;16.97;;;5.47;;
1591;SDS011;789;51.612;7.510;2022-10-26T05:07:14;6.17;;;4.40;;
1591;SDS011;789;51.612;7.510;2022-10-26T05:09:41;11.00;;;5.60;;
1591;SDS011;789;51.612;7.510;2022-10-26T05:12:08;11.67;;;6.23;;
1591;SDS011;789;51.612;7.510;2022-10-26T05:14:34;9.60;;;5.53;;
1591;SDS011;789;51.612;7.510;2022-10-26T05:17:01;8.47;;;5.50;;
1591;SDS011;789;51.612;7.510;2022-10-26T05:19:28;11.17;;;5.57;;
1591;SDS011;789;51.612;7.510;2022-10-26T05:21:55;11.27;;;5.23;;
1591;SDS011;789;51.612;7.510;2022-10-26T05:24:23;9.90;;;5.83;;
1591;SDS011;789;51.612;7.510;2022-10-26T05:26:49;12.53;;;5.23;;
1591;SDS011;789;51.612;7.510;2022-10-26T05:29:16;12.43;;;5.10;;
1591;SDS011;789;51.612;7.510;2022-10-26T05:31:43;21.27;;;6.60;;
1591;SDS011;789;51.612;7.510;2022-10-26T05:34:10;13.00;;;5.73;;
1591;SDS011;789;51.612;7.510;2022-10-26T05:36:36;13.47;;;5.83;;
1591;SDS011;789;51.612;7.510;2022-10-26T05:39:03;11.63;;;6.83;;
1591;SDS011;789;51.612;7.510;2022-10-26T05:41:32;8.03;;;5.60;;
1591;SDS011;789;51.612;7.510;2022-10-26T05:43:58;6.67;;;4.53;;
1591;SDS011;789;51.612;7.510;2022-10-26T05:46:25;13.43;;;5.37;;
1591;SDS011;789;51.612;7.510;2022-10-26T05:48:52;8.00;;;4.70;;
1591;SDS011;789;51.612;7.510;2022-10-26T05:51:18;10.70;;;5.40;;
1591;SDS011;789;51.612;7.510;2022-10-26T05:53:45;9.67;;;5.00;;
1591;SDS011;789;51.612;7.510;2022-10-26T05:56:14;9.70;;;4.50;;
1591;SDS011;789;51.612;7.510;2022-10-26T05:58:45;9.30;;;5.10;;
1591;SDS011;789;51.612;7.510;2022-10-26T06:01:16;12.00;;;5.80;;
1591;SDS011;789;51.612;7.510;2022-10-26T06:03:56;13.40;;;6.33;;
1591;SDS011;789;51.612;7.510;2022-10-26T06:06:36;16.87;;;6.80;;
1591;SDS011;789;51.612;7.510;2022-10-26T06:09:05;11.40;;;7.27;;
1591;SDS011;789;51.612;7.510;2022-10-26T06:11:34;17.20;;;6.43;;
1591;SDS011;789;51.612;7.510;2022-10-26T06:14:03;41.47;;;9.53;;
1591;SDS011;789;51.612;7.510;2022-10-26T06:16:32;11.40;;;6.67;;
1591;SDS011;789;51.612;7.510;2022-10-26T06:19:11;12.50;;;6.57;;
1591;SDS011;789;51.612;7.510;2022-10-26T06:21:48;8.83;;;5.50;;
1591;SDS011;789;51.612;7.510;2022-10-26T06:24:28;28.50;;;7.10;;
1591;SDS011;789;51.612;7.510;2022-10-26T06:27:02;22.30;;;6.50;;
1591;SDS011;789;51.612;7.510;2022-10-26T06:29:41;11.47;;;5.80;;
1591;SDS011;789;51.612;7.510;2022-10-26T06:32:15;12.60;;;4.93;;
1591;SDS011;789;51.612;7.510;2022-10-26T06:34:45;13.63;;;5.70;;
1591;SDS011;789;51.612;7.510;2022-10-26T06:37:15;7.63;;;4.47;;
1591;SDS011;789;51.612;7.510;2022-10-26T06:39:45;12.60;;;5.07;;
1591;SDS011;789;51.612;7.510;2022-10-26T06:42:14;10.13;;;4.87;;
1591;SDS011;789;51.612;7.510;2022-10-26T06:44:43;10.77;;;5.13;;
1591;SDS011;789;51.612;7.510;2022-10-26T06:47:12;6.90;;;4.60;;
1591;SDS011;789;51.612;7.510;2022-10-26T06:49:47;11.13;;;4.67;;
1591;SDS011;789;51.612;7.510;2022-10-26T06:52:24;20.50;;;6.37;;
1591;SDS011;789;51.612;7.510;2022-10-26T06:54:57;8.23;;;4.90;;
1591;SDS011;789;51.612;7.510;2022-10-26T06:57:25;11.00;;;4.93;;
1591;SDS011;789;51.612;7.510;2022-10-26T06:59:59;10.50;;;5.17;;
1591;SDS011;789;51.612;7.510;2022-10-26T07:02:31;13.73;;;4.77;;
1591;SDS011;789;51.612;7.510;2022-10-26T07:04:57;10.20;;;5.40;;
1591;SDS011;789;51.612;7.510;2022-10-26T07:07:24;17.10;;;5.60;;
1591;SDS011;789;51.612;7.510;2022-10-26T07:09:53;22.70;;;6.87;;
1591;SDS011;789;51.612;7.510;2022-10-26T07:12:20;23.17;;;6.13;;
1591;SDS011;789;51.612;7.510;2022-10-26T07:14:47;10.40;;;5.20;;
1591;SDS011;789;51.612;7.510;2022-10-26T07:17:15;15.80;;;5.90;;
1591;SDS011;789;51.612;7.510;2022-10-26T07:19:42;17.93;;;7.00;;
1591;SDS011;789;51.612;7.510;2022-10-26T07:22:08;14.80;;;6.10;;
1591;SDS011;789;51.612;7.510;2022-10-26T07:24:35;25.33;;;6.90;;
1591;SDS011;789;51.612;7.510;2022-10-26T07:27:02;12.27;;;5.37;;
1591;SDS011;789;51.612;7.510;2022-10-26T07:29:29;20.53;;;5.33;;
1591;SDS011;789;51.612;7.510;2022-10-26T07:31:56;24.97;;;7.00;;
1591;SDS011;789;51.612;7.510;2022-10-26T07:34:24;28.03;;;6.20;;
1591;SDS011;789;51.612;7.510;2022-10-26T07:36:51;24.53;;;6.77;;
1591;SDS011;789;51.612;7.510;2022-10-26T07:39:17;26.47;;;5.50;;
1591;SDS011;789;51.612;7.510;2022-10-26T07:41:44;18.37;;;5.83;;
1591;SDS011;789;51.612;7.510;2022-10-26T07:44:11;28.33;;;5.60;;
1591;SDS011;789;51.612;7.510;2022-10-26T07:46:38;17.63;;;5.17;;
1591;SDS011;789;51.612;7.510;2022-10-26T07:49:04;9.90;;;4.93;;
1591;SDS011;789;51.612;7.510;2022-10-26T07:51:32;12.47;;;4.80;;
1591;SDS011;789;51.612;7.510;2022-10-26T07:53:59;24.10;;;6.73;;
1591;SDS011;789;51.612;7.510;2022-10-26T07:56:26;15.27;;;5.40;;
1591;SDS011;789;51.612;7.510;2022-10-26T07:58:54;18.77;;;5.43;;
1591;SDS011;789;51.612;7.510;2022-10-26T08:01:22;15.23;;;4.80;;
1591;SDS011;789;51.612;7.510;2022-10-26T08:03:50;14.17;;;5.20;;
1591;SDS011;789;51.612;7.510;2022-10-26T08:06:18;7.77;;;4.40;;
1591;SDS011;789;51.612;7.510;2022-10-26T08:08:46;10.63;;;5.03;;
1591;SDS011;789;51.612;7.510;2022-10-26T08:11:13;10.40;;;4.20;;
1591;SDS011;789;51.612;7.510;2022-10-26T08:13:42;19.63;;;4.50;;
1591;SDS011;789;51.612;7.510;2022-10-26T08:16:09;8.70;;;4.17;;
1591;SDS011;789;51.612;7.510;2022-10-26T08:18:35;9.63;;;4.30;;
1591;SDS011;789;51.612;7.510;2022-10-26T08:21:03;9.60;;;4.13;;
1591;SDS011;789;51.612;7.510;2022-10-26T08:23:31;16.63;;;4.80;;
1591;SDS011;789;51.612;7.510;2022-10-26T08:26:00;14.50;;;3.90;;
1591;SDS011;789;51.612;7.510;2022-10-26T08:28:27;9.23;;;3.83;;
1591;SDS011;789;51.612;7.510;2022-10-26T08:30:54;11.50;;;3.87;;
1591;SDS011;789;51.612;7.510;2022-10-26T08:33:22;18.00;;;4.50;;
1591;SDS011;789;51.612;7.510;2022-10-26T08:35:53;12.50;;;3.80;;
1591;SDS011;789;51.612;7.510;2022-10-26T08:38:20;16.77;;;4.00;;
1591;SDS011;789;51.612;7.510;2022-10-26T08:40:47;13.43;;;3.70;;
1591;SDS011;789;51.612;7.510;2022-10-26T08:43:16;9.73;;;3.10;;
1591;SDS011;789;51.612;7.510;2022-10-26T08:45:49;8.43;;;3.27;;
1591;SDS011;789;51.612;7.510;2022-10-26T08:48:20;9.90;;;3.77;;
1591;SDS011;789;51.612;7.510;2022-10-26T08:50:51;5.83;;;2.93;;
1591;SDS011;789;51.612;7.510;2022-10-26T08:53:20;10.17;;;3.20;;
1591;SDS011;789;51.612;7.510;2022-10-26T08:55:52;8.33;;;3.30;;
1591;SDS011;789;51.612;7.510;2022-10-26T08:58:24;10.03;;;3.00;;
1591;SDS011;789;51.612;7.510;2022-10-26T09:00:53;11.57;;;3.30;;
1591;SDS011;789;51.612;7.510;2022-10-26T09:03:20;11.73;;;4.37;;
1591;SDS011;789;51.612;7.510;2022-10-26T09:05:49;6.27;;;3.00;;
1591;SDS011;789;51.612;7.510;2022-10-26T09:08:31;8.60;;;3.23;;
1591;SDS011;789;51.612;7.510;2022-10-26T09:11:07;14.57;;;3.00;;
1591;SDS011;789;51.612;7.510;2022-10-26T09:13:46;13.17;;;2.90;;
1591;SDS011;789;51.612;7.510;2022-10-26T09:16:22;9.87;;;3.40;;
1591;SDS011;789;51.612;7.510;2022-10-26T09:18:59;11.10;;;2.70;;
1591;SDS011;789;51.612;7.510;2022-10-26T09:21:42;7.37;;;2.43;;
1591;SDS011;789;51.612;7.510;2022-10-26T09:24:14;17.40;;;4.07;;
1591;SDS011;789;51.612;7.510;2022-10-26T09:26:52;13.47;;;2.63;;
1591;SDS011;789;51.612;7.510;2022-10-26T09:29:26;15.50;;;2.57;;
1591;SDS011;789;51.612;7.510;2022-10-26T09:31:58;15.60;;;3.00;;
1591;SDS011;789;51.612;7.510;2022-10-26T09:34:28;4.83;;;2.10;;
1591;SDS011;789;51.612;7.510;2022-10-26T09:37:04;14.10;;;2.63;;
1591;SDS011;789;51.612;7.510;2022-10-26T09:39:41;15.50;;;2.80;;
1591;SDS011;789;51.612;7.510;2022-10-26T09:42:13;8.53;;;2.97;;
1591;SDS011;789;51.612;7.510;2022-10-26T09:44:45;7.53;;;3.80;;
1591;SDS011;789;51.612;7.510;2022-10-26T09:47:23;5.17;;;2.20;;
1591;SDS011;789;51.612;7.510;2022-10-26T09:49:57;5.33;;;2.50;;
1591;SDS011;789;51.612;7.510;2022-10-26T09:52:29;6.20;;;2.07;;
1591;SDS011;789;51.612;7.510;2022-10-26T09:54:56;4.83;;;2.20;;
1591;SDS011;789;51.612;7.510;2022-10-26T09:57:23;11.73;;;2.13;;
1591;SDS011;789;51.612;7.510;2022-10-26T09:59:51;5.67;;;2.80;;
1591;SDS011;789;51.612;7.510;2022-10-26T10:02:32;7.40;;;2.53;;
1591;SDS011;789;51.612;7.510;2022-10-26T10:07:47;7.47;;;2.70;;
1591;SDS011;789;51.612;7.510;2022-10-26T10:10:14;12.43;;;2.73;;
1591;SDS011;789;51.612;7.510;2022-10-26T10:12:42;5.37;;;2.60;;
1591;SDS011;789;51.612;7.510;2022-10-26T10:15:27;3.73;;;2.10;;
1591;SDS011;789;51.612;7.510;2022-10-26T10:17:54;8.93;;;5.60;;
1591;SDS011;789;51.612;7.510;2022-10-26T10:20:21;7.80;;;4.17;;
1591;SDS011;789;51.612;7.510;2022-10-26T10:22:51;10.20;;;2.97;;
1591;SDS011;789;51.612;7.510;2022-10-26T10:25:32;7.03;;;2.27;;
1591;SDS011;789;51.612;7.510;2022-10-26T10:28:00;6.67;;;2.37;;
1591;SDS011;789;51.612;7.510;2022-10-26T10:30:31;9.43;;;2.60;;
1591;SDS011;789;51.612;7.510;2022-10-26T10:33:09;4.30;;;2.50;;
1591;SDS011;789;51.612;7.510;2022-10-26T10:35:37;6.57;;;2.60;;
1591;SDS011;789;51.612;7.510;2022-10-26T10:38:14;5.60;;;2.47;;
1591;SDS011;789;51.612;7.510;2022-10-26T10:40:47;8.23;;;2.60;;
1591;SDS011;789;51.612;7.510;2022-10-26T10:43:16;9.00;;;2.93;;
1591;SDS011;789;51.612;7.510;2022-10-26T10:45:47;7.03;;;2.37;;
1591;SDS011;789;51.612;7.510;2022-10-26T10:48:17;4.80;;;2.90;;
1591;SDS011;789;51.612;7.510;2022-10-26T10:50:52;4.70;;;2.10;;
1591;SDS011;789;51.612;7.510;2022-10-26T10:53:21;5.83;;;1.93;;
1591;SDS011;789;51.612;7.510;2022-10-26T10:55:56;8.07;;;2.63;;
1591;SDS011;789;51.612;7.510;2022-10-26T10:58:32;7.30;;;2.33;;
1591;SDS011;789;51.612;7.510;2022-10-26T11:01:09;5.50;;;2.80;;
1591;SDS011;789;51.612;7.510;2022-10-26T11:03:41;8.10;;;2.73;;
1591;SDS011;789;51.612;7.510;2022-10-26T11:06:19;10.93;;;2.90;;
1591;SDS011;789;51.612;7.510;2022-10-26T11:08:49;5.17;;;3.00;;
1591;SDS011;789;51.612;7.510;2022-10-26T11:11:20;7.83;;;2.97;;
1591;SDS011;789;51.612;7.510;2022-10-26T11:13:53;5.63;;;3.00;;
1591;SDS011;789;51.612;7.510;2022-10-26T11:16:23;4.27;;;2.23;;
1591;SDS011;789;51.612;7.510;2022-10-26T11:18:54;5.93;;;2.83;;
1591;SDS011;789;51.612;7.510;2022-10-26T11:21:25;11.40;;;2.93;;
1591;SDS011;789;51.612;7.510;2022-10-26T11:23:56;4.40;;;2.60;;
1591;SDS011;789;51.612;7.510;2022-10-26T11:26:35;7.20;;;3.17;;
1591;SDS011;789;51.612;7.510;2022-10-26T11:29:06;22.83;;;3.83;;
1591;SDS011;789;51.612;7.510;2022-10-26T11:31:45;34.77;;;5.27;;
1591;SDS011;789;51.612;7.510;2022-10-26T11:34:19;5.87;;;3.10;;
1591;SDS011;789;51.612;7.510;2022-10-26T11:36:52;6.53;;;2.87;;
1591;SDS011;789;51.612;7.510;2022-10-26T11:39:25;7.00;;;2.80;;
1591;SDS011;789;51.612;7.510;2022-10-26T11:41:59;8.23;;;2.90;;
1591;SDS011;789;51.612;7.510;2022-10-26T11:44:33;12.33;;;3.43;;
1591;SDS011;789;51.612;7.510;2022-10-26T11:47:06;17.63;;;4.20;;
1591;SDS011;789;51.612;7.510;2022-10-26T11:49:41;6.63;;;2.50;;
1591;SDS011;789;51.612;7.510;2022-10-26T11:52:12;6.90;;;2.47;;
1591;SDS011;789;51.612;7.510;2022-10-26T11:54:43;7.17;;;3.00;;
1591;SDS011;789;51.612;7.510;2022-10-26T11:57:16;9.93;;;3.37;;
1591;SDS011;789;51.612;7.510;2022-10-26T11:59:46;8.03;;;3.30;;
1591;SDS011;789;51.612;7.510;2022-10-26T12:02:21;5.23;;;2.93;;
1591;SDS011;789;51.612;7.510;2022-10-26T12:04:53;6.80;;;3.07;;
1591;SDS011;789;51.612;7.510;2022-10-26T12:07:25;7.97;;;2.97;;
1591;SDS011;789;51.612;7.510;2022-10-26T12:09:55;11.50;;;2.80;;
1591;SDS011;789;51.612;7.510;2022-10-26T12:12:29;7.63;;;3.13;;
1591;SDS011;789;51.612;7.510;2022-10-26T12:15:02;13.87;;;3.30;;
1591;SDS011;789;51.612;7.510;2022-10-26T12:17:41;6.43;;;3.20;;
1591;SDS011;789;51.612;7.510;2022-10-26T12:20:18;7.30;;;3.27;;
1591;SDS011;789;51.612;7.510;2022-10-26T12:23:13;6.40;;;2.70;;
1591;SDS011;789;51.612;7.510;2022-10-26T12:25:42;4.77;;;2.90;;
1591;SDS011;789;51.612;7.510;2022-10-26T12:28:32;13.87;;;3.10;;
1591;SDS011;789;51.612;7.510;2022-10-26T12:34:13;7.90;;;3.13;;
1591;SDS011;789;51.612;7.510;2022-10-26T12:36:47;11.80;;;3.07;;
1591;SDS011;789;51.612;7.510;2022-10-26T12:39:28;8.20;;;3.17;;
1591;SDS011;789;51.612;7.510;2022-10-26T12:41:56;12.93;;;2.90;;
1591;SDS011;789;51.612;7.510;2022-10-26T12:44:36;12.70;;;3.10;;
1591;SDS011;789;51.612;7.510;2022-10-26T12:47:05;8.30;;;2.30;;
1591;SDS011;789;51.612;7.510;2022-10-26T12:52:32;8.70;;;2.50;;
1591;SDS011;789;51.612;7.510;2022-10-26T12:55:19;8.50;;;2.43;;
1591;SDS011;789;51.612;7.510;2022-10-26T12:58:22;8.30;;;3.13;;
1591;SDS011;789;51.612;7.510;2022-10-26T13:01:20;6.67;;;2.70;;
1591;SDS011;789;51.612;7.510;2022-10-26T13:04:07;8.00;;;2.53;;
1591;SDS011;789;51.612;7.510;2022-10-26T13:07:06;7.03;;;2.20;;
1591;SDS011;789;51.612;7.510;2022-10-26T13:09:43;2.33;;;2.07;;
1591;SDS011;789;51.612;7.510;2022-10-26T13:12:11;9.73;;;2.77;;
1591;SDS011;789;51.612;7.510;2022-10-26T13:14:40;4.10;;;1.63;;
1591;SDS011;789;51.612;7.510;2022-10-26T13:17:23;7.23;;;2.47;;
1591;SDS011;789;51.612;7.510;2022-10-26T13:19:54;6.87;;;2.30;;
1591;SDS011;789;51.612;7.510;2022-10-26T13:22:23;10.20;;;2.90;;
1591;SDS011;789;51.612;7.510;2022-10-26T13:24:51;5.83;;;2.40;;
1591;SDS011;789;51.612;7.510;2022-10-26T13:36:05;4.77;;;2.83;;
1591;SDS011;789;51.612;7.510;2022-10-26T13:38:41;3.60;;;2.23;;
1591;SDS011;789;51.612;7.510;2022-10-26T13:41:14;10.00;;;2.57;;
1591;SDS011;789;51.612;7.510;2022-10-26T13:43:47;8.30;;;2.50;;
1591;SDS011;789;51.612;7.510;2022-10-26T13:46:19;6.27;;;2.50;;
1591;SDS011;789;51.612;7.510;2022-10-26T13:48:52;19.07;;;6.80;;
1591;SDS011;789;51.612;7.510;2022-10-26T13:51:29;3.93;;;2.00;;
1591;SDS011;789;51.612;7.510;2022-10-26T13:54:05;6.33;;;2.10;;
1591;SDS011;789;51.612;7.510;2022-10-26T13:56:41;7.37;;;2.40;;
1591;SDS011;789;51.612;7.510;2022-10-26T13:59:13;7.60;;;2.30;;
1591;SDS011;789;51.612;7.510;2022-10-26T14:01:40;4.93;;;2.20;;
1591;SDS011;789;51.612;7.510;2022-10-26T14:04:13;3.97;;;1.70;;
1591;SDS011;789;51.612;7.510;2022-10-26T14:06:42;4.73;;;2.37;;
1591;SDS011;789;51.612;7.510;2022-10-26T14:09:16;3.00;;;1.90;;
1591;SDS011;789;51.612;7.510;2022-10-26T14:11:46;2.37;;;1.60;;
1591;SDS011;789;51.612;7.510;2022-10-26T14:14:16;2.93;;;1.60;;
1591;SDS011;789;51.612;7.510;2022-10-26T14:16:48;5.40;;;1.83;;
1591;SDS011;789;51.612;7.510;2022-10-26T14:19:17;3.60;;;1.80;;
1591;SDS011;789;51.612;7.510;2022-10-26T14:21:49;4.87;;;2.30;;
1591;SDS011;789;51.612;7.510;2022-10-26T14:24:21;4.13;;;1.73;;
1591;SDS011;789;51.612;7.510;2022-10-26T14:26:49;3.37;;;1.53;;
1591;SDS011;789;51.612;7.510;2022-10-26T14:29:16;4.47;;;1.70;;
1591;SDS011;789;51.612;7.510;2022-10-26T14:31:44;3.20;;;1.50;;
1591;SDS011;789;51.612;7.510;2022-10-26T14:34:13;2.90;;;1.30;;
1591;SDS011;789;51.612;7.510;2022-10-26T14:36:41;7.00;;;2.13;;
1591;SDS011;789;51.612;7.510;2022-10-26T14:39:13;7.67;;;2.00;;
1591;SDS011;789;51.612;7.510;2022-10-26T14:41:45;5.03;;;2.20;;
1591;SDS011;789;51.612;7.510;2022-10-26T14:44:15;6.17;;;1.80;;
1591;SDS011;789;51.612;7.510;2022-10-26T14:46:43;6.80;;;2.00;;
1591;SDS011;789;51.612;7.510;2022-10-26T14:49:15;3.43;;;1.37;;
1591;SDS011;789;51.612;7.510;2022-10-26T14:51:44;5.73;;;2.47;;
1591;SDS011;789;51.612;7.510;2022-10-26T14:54:18;3.27;;;1.70;;
1591;SDS011;789;51.612;7.510;2022-10-26T14:56:47;4.43;;;1.70;;
1591;SDS011;789;51.612;7.510;2022-10-26T14:59:19;2.37;;;1.70;;
1591;SDS011;789;51.612;7.510;2022-10-26T15:01:50;6.53;;;2.00;;
1591;SDS011;789;51.612;7.510;2022-10-26T15:04:32;4.20;;;2.20;;
1591;SDS011;789;51.612;7.510;2022-10-26T15:07:06;6.60;;;1.73;;
1591;SDS011;789;51.612;7.510;2022-10-26T15:09:37;3.83;;;1.93;;
1591;SDS011;789;51.612;7.510;2022-10-26T15:12:16;5.43;;;1.83;;
1591;SDS011;789;51.612;7.510;2022-10-26T15:14:47;7.53;;;2.07;;
1591;SDS011;789;51.612;7.510;2022-10-26T15:17:20;6.90;;;2.67;;
1591;SDS011;789;51.612;7.510;2022-10-26T15:19:49;9.13;;;5.77;;
1591;SDS011;789;51.612;7.510;2022-10-26T15:22:19;6.93;;;2.90;;
1591;SDS011;789;51.612;7.510;2022-10-26T15:24:49;3.27;;;2.10;;
1591;SDS011;789;51.612;7.510;2022-10-26T15:27:20;3.80;;;3.30;;
1591;SDS011;789;51.612;7.510;2022-10-26T15:29:50;5.60;;;3.67;;
1591;SDS011;789;51.612;7.510;2022-10-26T15:32:33;12.70;;;4.57;;
1591;SDS011;789;51.612;7.510;2022-10-26T15:35:11;8.77;;;3.60;;
1591;SDS011;789;51.612;7.510;2022-10-26T15:37:40;4.13;;;2.33;;
1591;SDS011;789;51.612;7.510;2022-10-26T15:40:07;4.43;;;2.17;;
1591;SDS011;789;51.612;7.510;2022-10-26T15:42:36;4.93;;;2.10;;
1591;SDS011;789;51.612;7.510;2022-10-26T15:45:05;6.07;;;2.77;;
1591;SDS011;789;51.612;7.510;2022-10-26T15:47:40;4.10;;;2.47;;
1591;SDS011;789;51.612;7.510;2022-10-26T15:50:10;6.43;;;2.10;;
1591;SDS011;789;51.612;7.510;2022-10-26T15:52:37;3.07;;;1.97;;
1591;SDS011;789;51.612;7.510;2022-10-26T15:55:04;6.57;;;2.77;;
1591;SDS011;789;51.612;7.510;2022-10-26T15:57:39;4.37;;;2.30;;
1591;SDS011;789;51.612;7.510;2022-10-26T16:00:06;3.93;;;2.20;;
1591;SDS011;789;51.612;7.510;2022-10-26T16:02:39;6.67;;;2.60;;
1591;SDS011;789;51.612;7.510;2022-10-26T16:05:07;8.33;;;3.10;;
1591;SDS011;789;51.612;7.510;2022-10-26T16:07:36;5.87;;;2.40;;
1591;SDS011;789;51.612;7.510;2022-10-26T16:10:04;5.17;;;2.33;;